Time;durP1;ratioP1;P1;durP2;ratioP2;P2;SDS_P1;SDS_P2;PMS_P1;PMS_P2;Temp;Humidity;BMP_temperature;BMP_pressure;BME280_temperature;BME280_humidity;BME280_pressure;Samples;Min_cycle;Max_cycle;Signal;HPM_P1;HPM_P2
2024/01/09 00:00:16;;;;;;;6.57;4.95;;;3.00;87.90;;;;;;5015104;28;20477;-28
2024/01/09 00:02:42;;;;;;;8.48;5.72;;;3.00;87.10;;;;;;5030911;28;20199;-33
2024/01/09 00:05:09;;;;;;;7.57;5.57;;;3.00;87.20;;;;;;5031570;28;20213;-28
2024/01/09 00:07:35;;;;;;;7.00;5.47;;;3.00;87.40;;;;;;5015495;28;20204;-29
2024/01/09 00:10:02;;;;;;;9.40;5.53;;;3.00;87.50;;;;;;5014637;28;20200;-28
2024/01/09 00:12:30;;;;;;;6.97;5.80;;;3.00;87.40;;;;;;4992589;28;20469;-28
2024/01/09 00:14:56;;;;;;;7.57;5.80;;;3.00;87.40;;;;;;5016026;28;21097;-35
2024/01/09 00:17:27;;;;;;;6.80;5.40;;;3.00;87.60;;;;;;5011983;28;20436;-30
2024/01/09 00:19:55;;;;;;;7.00;5.78;;;3.00;87.60;;;;;;5016187;28;20801;-28
2024/01/09 00:22:21;;;;;;;7.28;5.30;;;3.00;87.50;;;;;;5014398;28;20196;-28
2024/01/09 00:24:50;;;;;;;6.32;5.57;;;3.00;87.50;;;;;;5013851;28;20327;-28
2024/01/09 00:27:16;;;;;;;8.00;5.57;;;3.00;87.50;;;;;;5011630;28;20188;-29
2024/01/09 00:29:45;;;;;;;5.70;5.00;;;3.00;87.40;;;;;;5014424;28;20216;-28
2024/01/09 00:32:11;;;;;;;5.60;4.47;;;2.90;87.20;;;;;;5014383;28;20460;-29
2024/01/09 00:34:38;;;;;;;6.68;5.30;;;2.90;87.20;;;;;;4997343;28;20186;-28
2024/01/09 00:37:04;;;;;;;6.50;5.03;;;2.90;86.90;;;;;;4994052;28;20985;-28
2024/01/09 00:39:30;;;;;;;5.60;5.00;;;2.90;86.80;;;;;;5014125;28;20209;-30
2024/01/09 00:41:56;;;;;;;6.50;5.47;;;2.90;86.90;;;;;;5016403;28;21088;-29
2024/01/09 00:44:24;;;;;;;7.90;5.75;;;2.90;86.90;;;;;;5015586;28;20489;-28
2024/01/09 00:46:50;;;;;;;6.78;5.90;;;2.90;86.90;;;;;;5019292;28;20185;-29
2024/01/09 00:49:16;;;;;;;7.67;5.30;;;2.90;86.80;;;;;;5018304;28;20207;-30
2024/01/09 00:51:42;;;;;;;5.53;4.43;;;2.90;86.70;;;;;;5001094;28;20868;-28
2024/01/09 00:54:08;;;;;;;5.78;5.00;;;2.90;86.90;;;;;;5018610;28;21043;-29
2024/01/09 00:56:36;;;;;;;7.73;5.40;;;2.90;86.60;;;;;;5017044;28;20182;-29
2024/01/09 00:59:03;;;;;;;6.32;5.10;;;2.90;86.50;;;;;;5014655;28;20448;-30
2024/01/09 01:01:31;;;;;;;8.98;5.28;;;2.90;86.30;;;;;;5017934;28;20667;-30
2024/01/09 01:03:58;;;;;;;8.27;5.20;;;2.80;86.30;;;;;;5017841;28;20291;-28
2024/01/09 01:06:23;;;;;;;6.93;5.82;;;2.80;86.40;;;;;;5017508;28;20882;-31
2024/01/09 01:08:49;;;;;;;7.57;5.77;;;2.90;86.50;;;;;;5014227;28;20212;-29
2024/01/09 01:11:16;;;;;;;6.38;4.45;;;2.80;86.60;;;;;;5032123;28;20455;-29
2024/01/09 01:13:42;;;;;;;8.05;5.70;;;2.80;86.80;;;;;;5033592;28;20216;-29
2024/01/09 01:16:08;;;;;;;6.97;5.03;;;2.80;86.70;;;;;;5017412;28;20183;-29
2024/01/09 01:18:34;;;;;;;6.38;5.55;;;2.80;86.50;;;;;;5016442;28;21044;-29
2024/01/09 01:21:00;;;;;;;5.70;5.10;;;2.80;86.30;;;;;;5016178;28;20180;-31
2024/01/09 01:23:26;;;;;;;6.43;5.30;;;2.80;86.10;;;;;;5016575;28;20616;-30
2024/01/09 01:25:54;;;;;;;7.03;4.90;;;2.80;86.00;;;;;;5104744;22;20762;-28
2024/01/09 01:28:23;;;;;;;5.20;4.70;;;2.80;86.20;;;;;;5078792;28;20713;-27
2024/01/09 01:30:51;;;;;;;6.72;6.03;;;2.70;86.10;;;;;;5080129;28;20213;-27
2024/01/09 01:33:19;;;;;;;5.63;5.05;;;2.70;86.10;;;;;;5079976;28;20222;-27
2024/01/09 01:35:46;;;;;;;4.88;4.35;;;2.80;86.30;;;;;;5079300;28;20309;-26
2024/01/09 01:38:18;;;;;;;6.10;4.65;;;2.80;86.20;;;;;;5080683;28;20210;-27
2024/01/09 01:40:49;;;;;;;7.18;5.13;;;2.80;86.10;;;;;;5079479;28;20182;-27
2024/01/09 01:43:16;;;;;;;5.43;4.82;;;2.70;86.00;;;;;;5078594;28;20175;-27
2024/01/09 01:45:44;;;;;;;6.75;5.10;;;2.70;86.10;;;;;;5080530;28;20264;-27
2024/01/09 01:48:15;;;;;;;6.80;4.85;;;2.70;85.80;;;;;;5081175;28;20326;-27
2024/01/09 01:50:43;;;;;;;8.82;5.30;;;2.70;85.60;;;;;;5078015;28;20207;-27
2024/01/09 01:53:09;;;;;;;6.10;4.82;;;2.70;85.30;;;;;;5062201;28;20799;-27
2024/01/09 01:55:37;;;;;;;6.88;4.93;;;2.70;85.20;;;;;;5079008;28;20684;-27
2024/01/09 01:58:04;;;;;;;5.22;4.70;;;2.70;85.20;;;;;;5079254;28;20203;-27
2024/01/09 02:00:31;;;;;;;6.82;4.82;;;2.70;85.30;;;;;;5079103;28;20198;-27
2024/01/09 02:03:00;;;;;;;4.90;4.40;;;2.70;85.50;;;;;;5081005;28;20187;-27
2024/01/09 02:05:30;;;;;;;6.05;4.38;;;2.70;85.70;;;;;;5080566;28;20199;-28
2024/01/09 02:07:57;;;;;;;5.47;4.90;;;2.60;85.90;;;;;;5079764;28;20720;-27
2024/01/09 02:10:24;;;;;;;6.35;4.63;;;2.70;85.90;;;;;;5079255;28;20321;-27
2024/01/09 02:12:50;;;;;;;8.95;5.00;;;2.70;86.00;;;;;;5062069;28;20289;-27
2024/01/09 02:15:16;;;;;;;6.45;5.00;;;2.60;85.90;;;;;;5079729;28;20183;-26
2024/01/09 02:17:44;;;;;;;5.47;4.88;;;2.60;85.90;;;;;;5080007;28;20222;-27
2024/01/09 02:20:12;;;;;;;6.68;4.75;;;2.60;85.90;;;;;;5079895;28;20278;-27
2024/01/09 02:22:43;;;;;;;6.35;4.65;;;2.60;85.90;;;;;;5078601;28;20217;-27
2024/01/09 02:25:12;;;;;;;5.80;4.68;;;2.60;85.70;;;;;;5080111;28;21034;-26
2024/01/09 02:27:57;;;;;;;5.40;4.90;;;2.60;85.50;;;;;;5080230;28;20237;-27
2024/01/09 02:30:25;;;;;;;5.78;4.78;;;2.60;85.40;;;;;;5074394;28;20518;-28
2024/01/09 02:32:51;;;;;;;4.82;4.10;;;2.60;85.50;;;;;;5078878;28;20222;-27
2024/01/09 02:35:18;;;;;;;5.75;4.60;;;2.60;85.50;;;;;;5078280;28;20183;-26
2024/01/09 02:37:44;;;;;;;5.38;4.45;;;2.60;85.40;;;;;;5080038;28;20290;-27
2024/01/09 02:40:13;;;;;;;4.60;4.20;;;2.60;85.30;;;;;;5078820;28;21065;-26
2024/01/09 02:42:38;;;;;;;7.18;5.43;;;2.60;85.30;;;;;;5079819;28;20494;-27
2024/01/09 02:45:10;;;;;;;5.50;5.00;;;2.60;85.40;;;;;;5078229;28;20182;-28
2024/01/09 02:47:36;;;;;;;5.00;4.50;;;2.60;85.40;;;;;;5077558;28;20272;-27
2024/01/09 02:50:08;;;;;;;6.70;4.50;;;2.50;85.50;;;;;;5078420;28;20277;-26
2024/01/09 02:52:36;;;;;;;5.13;4.63;;;2.50;85.50;;;;;;5076865;28;20203;-27
2024/01/09 02:55:04;;;;;;;6.22;4.90;;;2.50;85.60;;;;;;5073992;28;20266;-27
2024/01/09 02:57:34;;;;;;;5.60;4.10;;;2.60;85.70;;;;;;5078085;28;20827;-28
2024/01/09 03:00:00;;;;;;;6.15;4.63;;;2.50;85.70;;;;;;5077435;28;20600;-26
2024/01/09 03:02:31;;;;;;;6.10;4.35;;;2.50;86.00;;;;;;5078857;28;20187;-27
2024/01/09 03:04:57;;;;;;;5.40;4.72;;;2.50;85.80;;;;;;5079340;28;20215;-27
2024/01/09 03:07:23;;;;;;;5.80;4.50;;;2.50;86.00;;;;;;5077361;28;20195;-27
2024/01/09 03:09:49;;;;;;;5.10;4.60;;;2.50;85.90;;;;;;5079626;28;20456;-27
2024/01/09 03:12:14;;;;;;;6.25;4.45;;;2.50;85.90;;;;;;5058918;28;20467;-27
2024/01/09 03:14:43;;;;;;;6.23;4.50;;;2.50;85.80;;;;;;5077178;28;20618;-27
2024/01/09 03:17:09;;;;;;;5.32;4.35;;;2.50;85.80;;;;;;5079514;28;21006;-27
2024/01/09 03:19:40;;;;;;;5.47;4.30;;;2.50;85.90;;;;;;5078506;28;20285;-27
2024/01/09 03:22:09;;;;;;;6.15;4.85;;;2.50;85.80;;;;;;5061200;28;20290;-28
2024/01/09 03:24:38;;;;;;;6.50;4.73;;;2.50;85.70;;;;;;5078805;28;20266;-27
2024/01/09 03:27:04;;;;;;;5.90;4.93;;;2.50;85.70;;;;;;5073680;28;21313;-37
2024/01/09 03:29:33;;;;;;;6.53;5.32;;;2.50;85.80;;;;;;5078083;28;20236;-27
2024/01/09 03:32:02;;;;;;;4.97;4.47;;;2.50;85.80;;;;;;5073391;28;20211;-27
2024/01/09 03:34:32;;;;;;;5.60;4.78;;;2.50;85.90;;;;;;5073923;28;21210;-27
2024/01/09 03:36:58;;;;;;;6.55;4.82;;;2.50;85.90;;;;;;5071208;28;20800;-26
2024/01/09 03:39:25;;;;;;;7.20;4.80;;;2.40;86.00;;;;;;5078837;28;20260;-27
2024/01/09 03:41:52;;;;;;;5.03;4.45;;;2.40;86.10;;;;;;5075432;28;20191;-28
2024/01/09 03:44:22;;;;;;;5.47;4.72;;;2.40;86.00;;;;;;5069656;28;20187;-27
2024/01/09 03:46:51;;;;;;;5.35;4.60;;;2.40;86.20;;;;;;5074584;28;20274;-27
2024/01/09 03:49:20;;;;;;;5.22;4.65;;;2.50;86.30;;;;;;5074186;28;20298;-26
2024/01/09 03:51:46;;;;;;;5.70;4.35;;;2.50;86.30;;;;;;5073139;28;20203;-27
2024/01/09 03:54:16;;;;;;;6.20;4.90;;;2.40;86.30;;;;;;5077180;28;20918;-27
2024/01/09 03:56:42;;;;;;;5.63;4.43;;;2.40;86.50;;;;;;5060331;28;20202;-28
2024/01/09 03:59:08;;;;;;;5.90;4.57;;;2.40;86.50;;;;;;5078383;28;20199;-27
2024/01/09 04:01:34;;;;;;;5.38;4.57;;;2.40;86.50;;;;;;5078333;28;21317;-27
2024/01/09 04:04:01;;;;;;;6.43;4.50;;;2.40;86.50;;;;;;5073885;28;20187;-27
2024/01/09 04:06:32;;;;;;;5.95;4.93;;;2.40;86.40;;;;;;5077753;28;20480;-27
2024/01/09 04:09:01;;;;;;;6.97;4.93;;;2.40;86.50;;;;;;5077990;28;21132;-28
2024/01/09 04:11:27;;;;;;;6.43;5.10;;;2.40;86.40;;;;;;5077475;28;20187;-27
2024/01/09 04:13:53;;;;;;;6.82;5.22;;;2.40;86.20;;;;;;5079793;28;20251;-27
2024/01/09 04:16:21;;;;;;;7.50;4.50;;;2.40;86.20;;;;;;5082415;28;20200;-27
2024/01/09 04:18:49;;;;;;;5.85;4.40;;;2.40;86.00;;;;;;5078715;28;20549;-27
2024/01/09 04:21:15;;;;;;;5.13;4.63;;;2.40;85.90;;;;;;5079414;28;20171;-27
2024/01/09 04:23:42;;;;;;;8.37;5.53;;;2.40;85.70;;;;;;5082281;28;20860;-26
2024/01/09 04:26:08;;;;;;;5.43;4.50;;;2.40;85.60;;;;;;5082362;28;20490;-27
2024/01/09 04:28:34;;;;;;;5.80;4.53;;;2.40;85.80;;;;;;5082667;28;20246;-27
2024/01/09 04:31:05;;;;;;;4.95;4.50;;;2.40;85.70;;;;;;5077607;28;20194;-27
2024/01/09 04:33:35;;;;;;;5.18;4.68;;;2.40;85.80;;;;;;5080954;28;20225;-27
2024/01/09 04:36:04;;;;;;;6.70;4.65;;;2.30;85.80;;;;;;5075647;28;20175;-27
2024/01/09 04:38:32;;;;;;;5.68;5.13;;;2.30;86.10;;;;;;5081360;28;20567;-26
2024/01/09 04:41:03;;;;;;;4.97;4.47;;;2.30;86.20;;;;;;5082027;28;20206;-27
2024/01/09 04:43:29;;;;;;;5.72;4.82;;;2.30;86.30;;;;;;5081718;28;20193;-28
2024/01/09 04:46:00;;;;;;;5.88;4.85;;;2.30;86.40;;;;;;5064248;28;20285;-27
2024/01/09 04:48:26;;;;;;;7.13;4.93;;;2.30;86.30;;;;;;5080770;28;20215;-27
2024/01/09 04:50:54;;;;;;;4.97;4.47;;;2.30;86.30;;;;;;5063264;28;20188;-26
2024/01/09 04:53:23;;;;;;;5.90;4.70;;;2.30;86.40;;;;;;5077901;28;20217;-27
2024/01/09 04:55:48;;;;;;;5.32;4.55;;;2.30;86.50;;;;;;5080201;28;20417;-26
2024/01/09 04:58:15;;;;;;;5.80;5.17;;;2.30;86.40;;;;;;5081764;28;20201;-28
2024/01/09 05:00:43;;;;;;;4.95;4.45;;;2.30;86.30;;;;;;5062845;28;20452;-27
2024/01/09 05:03:09;;;;;;;6.38;4.72;;;2.30;86.40;;;;;;5082058;28;20211;-27
2024/01/09 05:05:37;;;;;;;5.50;5.00;;;2.30;86.50;;;;;;5063359;28;20237;-26
2024/01/09 05:08:04;;;;;;;7.50;5.40;;;2.30;86.40;;;;;;5081626;28;20210;-28
2024/01/09 05:10:32;;;;;;;6.50;5.57;;;2.30;86.30;;;;;;5080461;28;20425;-27
2024/01/09 05:12:59;;;;;;;5.70;5.10;;;2.30;86.40;;;;;;5079837;28;20223;-27
2024/01/09 05:15:27;;;;;;;5.75;4.53;;;2.30;86.50;;;;;;5081266;28;20289;-27
2024/01/09 05:17:55;;;;;;;6.32;5.32;;;2.30;86.30;;;;;;5080056;28;20596;-27
2024/01/09 05:20:21;;;;;;;5.45;4.90;;;2.30;86.30;;;;;;5081819;28;20989;-27
2024/01/09 05:22:50;;;;;;;8.10;5.93;;;2.20;86.40;;;;;;5081360;28;20219;-26
2024/01/09 05:25:19;;;;;;;5.80;5.20;;;2.30;86.50;;;;;;5079136;28;20191;-27
2024/01/09 05:27:45;;;;;;;5.22;4.72;;;2.20;86.20;;;;;;5077916;28;20202;-27
2024/01/09 05:30:14;;;;;;;7.40;5.05;;;2.20;86.20;;;;;;5079771;28;20187;-26
2024/01/09 05:32:40;;;;;;;5.10;4.60;;;2.20;86.20;;;;;;5081046;28;20309;-27
2024/01/09 05:35:09;;;;;;;6.70;5.15;;;2.20;86.30;;;;;;5080104;28;20250;-27
2024/01/09 05:37:35;;;;;;;5.70;4.57;;;2.20;86.40;;;;;;5080057;28;20187;-26
2024/01/09 05:40:04;;;;;;;6.83;5.30;;;2.20;86.50;;;;;;5078517;28;20408;-27
2024/01/09 05:42:32;;;;;;;5.95;5.35;;;2.20;86.40;;;;;;5081219;28;20433;-27
2024/01/09 05:44:58;;;;;;;7.22;5.63;;;2.20;86.40;;;;;;5081621;28;20334;-27
2024/01/09 05:47:24;;;;;;;6.90;5.03;;;2.20;86.40;;;;;;5080983;28;20714;-27
2024/01/09 05:49:51;;;;;;;6.35;4.97;;;2.20;86.30;;;;;;5079952;28;20449;-27
2024/01/09 05:52:17;;;;;;;6.43;4.82;;;2.20;86.40;;;;;;5061694;28;20907;-27
2024/01/09 05:54:46;;;;;;;6.67;4.80;;;2.20;86.50;;;;;;5080607;28;20183;-27
2024/01/09 05:57:13;;;;;;;5.43;4.45;;;2.20;86.60;;;;;;5078305;28;20543;-26
2024/01/09 05:59:41;;;;;;;6.30;4.40;;;2.20;86.30;;;;;;5078431;28;20219;-26
2024/01/09 06:02:07;;;;;;;5.35;4.63;;;2.20;86.30;;;;;;5061755;28;20206;-27
2024/01/09 06:04:35;;;;;;;4.75;4.35;;;2.10;86.40;;;;;;5078882;28;20614;-27
2024/01/09 06:07:03;;;;;;;8.20;5.20;;;2.10;86.40;;;;;;5078539;28;20206;-27
2024/01/09 06:09:32;;;;;;;6.87;4.63;;;2.20;86.20;;;;;;5081094;28;20199;-26
2024/01/09 06:12:00;;;;;;;6.97;4.75;;;2.10;86.00;;;;;;5080228;28;20818;-27
2024/01/09 06:14:27;;;;;;;6.13;5.00;;;2.10;86.00;;;;;;5078895;28;20218;-27
2024/01/09 06:17:00;;;;;;;6.28;4.78;;;2.10;86.10;;;;;;5079546;28;20440;-27
2024/01/09 06:19:28;;;;;;;7.55;5.22;;;2.10;86.10;;;;;;5080368;28;21095;-27
2024/01/09 06:21:54;;;;;;;6.30;4.73;;;2.10;86.10;;;;;;5079587;28;20263;-27
2024/01/09 06:24:20;;;;;;;6.93;5.23;;;2.10;86.00;;;;;;5078838;28;20826;-27
2024/01/09 06:26:51;;;;;;;6.70;4.68;;;2.10;85.90;;;;;;5062109;28;20448;-28
2024/01/09 06:29:21;;;;;;;6.22;5.25;;;2.10;86.00;;;;;;5075952;28;20215;-27
2024/01/09 06:31:47;;;;;;;7.65;5.80;;;2.10;85.90;;;;;;5079856;28;20577;-26
2024/01/09 06:34:17;;;;;;;6.13;5.15;;;2.10;85.80;;;;;;5079916;28;20931;-26
2024/01/09 06:36:46;;;;;;;6.30;5.10;;;2.10;85.90;;;;;;5075196;28;20175;-27
2024/01/09 06:39:14;;;;;;;7.10;5.35;;;2.10;86.00;;;;;;5077947;28;20206;-27
2024/01/09 06:41:41;;;;;;;6.07;5.10;;;2.10;85.90;;;;;;5079144;28;20199;-26
2024/01/09 06:44:10;;;;;;;8.13;5.53;;;2.00;86.00;;;;;;5079004;28;20554;-26
2024/01/09 06:46:36;;;;;;;6.80;5.22;;;2.10;86.20;;;;;;5079963;28;20187;-26
2024/01/09 06:49:02;;;;;;;6.85;5.45;;;2.00;86.00;;;;;;5074823;28;20207;-27
2024/01/09 06:51:32;;;;;;;5.93;5.30;;;2.00;86.00;;;;;;5079777;28;20199;-26
2024/01/09 06:53:58;;;;;;;8.20;5.40;;;2.00;86.10;;;;;;5079742;28;20206;-26
2024/01/09 06:56:24;;;;;;;7.10;5.20;;;2.00;86.80;;;;;;5062178;28;20710;-26
2024/01/09 06:58:50;;;;;;;5.13;4.50;;;2.00;86.00;;;;;;5077915;28;21381;-26
2024/01/09 07:01:16;;;;;;;9.43;4.70;;;2.00;85.90;;;;;;5079773;28;20425;-25
2024/01/09 07:03:42;;;;;;;6.50;4.67;;;2.00;86.10;;;;;;5061326;28;20190;-27
2024/01/09 07:06:11;;;;;;;6.05;4.72;;;2.00;86.00;;;;;;5080789;28;20433;-26
2024/01/09 07:08:37;;;;;;;6.38;5.30;;;2.00;86.10;;;;;;5078694;28;20207;-26
2024/01/09 07:11:05;;;;;;;7.00;5.18;;;1.90;86.10;;;;;;5079987;28;20294;-26
2024/01/09 07:13:34;;;;;;;6.38;4.90;;;2.00;86.20;;;;;;5058892;28;20391;-26
2024/01/09 07:16:03;;;;;;;8.23;5.60;;;2.00;86.10;;;;;;5079234;28;20959;-26
2024/01/09 07:18:29;;;;;;;8.25;5.35;;;2.00;85.80;;;;;;5078585;28;20195;-26
2024/01/09 07:20:55;;;;;;;8.18;5.80;;;1.90;85.90;;;;;;5076782;28;20195;-26
2024/01/09 07:23:21;;;;;;;7.60;5.85;;;1.90;86.00;;;;;;5078516;28;20274;-27
2024/01/09 07:25:47;;;;;;;7.23;5.00;;;1.90;86.10;;;;;;5078560;28;20269;-26
2024/01/09 07:28:16;;;;;;;6.30;5.10;;;1.90;86.10;;;;;;5078401;28;20958;-27
2024/01/09 07:30:44;;;;;;;7.18;4.85;;;1.90;86.10;;;;;;5072189;28;20562;-26
2024/01/09 07:33:11;;;;;;;6.93;6.10;;;1.90;86.10;;;;;;5077232;28;20219;-26
2024/01/09 07:35:39;;;;;;;6.47;5.57;;;1.90;86.30;;;;;;5076702;28;20286;-27
2024/01/09 07:38:07;;;;;;;6.57;5.32;;;1.90;86.40;;;;;;5075773;28;20210;-26
2024/01/09 07:40:33;;;;;;;5.63;4.80;;;1.90;86.40;;;;;;5078017;28;20734;-26
2024/01/09 07:43:02;;;;;;;7.50;5.28;;;1.90;86.30;;;;;;5077753;28;20449;-26
2024/01/09 07:45:30;;;;;;;8.27;5.22;;;1.90;86.20;;;;;;5076604;28;20948;-26
2024/01/09 07:47:58;;;;;;;6.65;5.47;;;1.90;86.30;;;;;;5077274;28;20736;-26
2024/01/09 07:50:29;;;;;;;5.55;5.05;;;1.90;86.30;;;;;;5077305;28;20835;-26
2024/01/09 07:52:55;;;;;;;7.30;5.00;;;1.90;86.50;;;;;;5042138;28;20323;-27
2024/01/09 07:55:21;;;;;;;5.70;5.17;;;1.90;86.50;;;;;;5077099;28;20199;-27
2024/01/09 07:57:47;;;;;;;7.37;5.30;;;1.90;86.50;;;;;;5076014;28;20483;-27
2024/01/09 08:00:15;;;;;;;6.15;5.03;;;1.90;86.40;;;;;;5060276;28;20421;-26
2024/01/09 08:02:41;;;;;;;9.25;5.05;;;1.90;86.30;;;;;;5058858;28;20222;-26
2024/01/09 08:05:08;;;;;;;5.68;4.70;;;1.90;86.30;;;;;;5078027;28;20295;-27
2024/01/09 08:07:34;;;;;;;7.18;5.68;;;1.90;86.40;;;;;;5077915;28;20187;-26
2024/01/09 08:10:00;;;;;;;6.82;5.20;;;1.90;86.40;;;;;;5076049;28;20187;-27
2024/01/09 08:12:28;;;;;;;8.23;5.82;;;1.90;86.30;;;;;;5075249;28;20625;-26
2024/01/09 08:14:59;;;;;;;10.27;5.90;;;1.90;86.20;;;;;;5075811;28;20179;-26
2024/01/09 08:17:25;;;;;;;8.48;5.75;;;1.80;86.00;;;;;;5076330;28;20191;-26
2024/01/09 08:19:53;;;;;;;8.48;6.03;;;1.90;86.10;;;;;;5058458;28;20701;-26
2024/01/09 08:22:21;;;;;;;6.88;5.60;;;1.80;85.90;;;;;;5075256;28;20199;-28
2024/01/09 08:24:50;;;;;;;5.72;5.13;;;1.80;86.10;;;;;;5075463;28;20244;-26
2024/01/09 08:27:19;;;;;;;8.75;5.53;;;1.80;86.10;;;;;;5076049;28;20203;-26
2024/01/09 08:29:48;;;;;;;7.88;6.32;;;1.80;86.20;;;;;;5075306;28;20207;-27
2024/01/09 08:32:15;;;;;;;7.38;5.00;;;1.80;86.10;;;;;;5076692;28;20193;-26
2024/01/09 08:34:41;;;;;;;5.35;4.85;;;1.80;85.70;;;;;;5076966;28;20183;-27
2024/01/09 08:37:12;;;;;;;6.25;5.63;;;1.80;85.60;;;;;;5076805;28;20724;-26
2024/01/09 08:39:41;;;;;;;6.70;5.35;;;1.80;85.70;;;;;;5042104;28;20360;-26
2024/01/09 08:42:07;;;;;;;7.13;5.63;;;1.80;85.50;;;;;;5077199;28;20608;-26
2024/01/09 08:44:34;;;;;;;7.97;5.30;;;1.80;85.30;;;;;;5075252;28;20213;-26
2024/01/09 08:47:00;;;;;;;7.90;6.70;;;1.80;85.40;;;;;;5076867;28;20441;-27
2024/01/09 08:49:27;;;;;;;5.72;5.03;;;1.80;85.40;;;;;;5077373;28;20206;-26
2024/01/09 08:51:53;;;;;;;8.20;6.45;;;1.80;85.60;;;;;;5063916;28;20275;-27
2024/01/09 08:54:22;;;;;;;8.40;6.57;;;1.80;85.50;;;;;;5080770;28;20654;-27
2024/01/09 08:56:48;;;;;;;7.90;5.20;;;1.80;85.40;;;;;;5076407;28;20296;-27
2024/01/09 08:59:14;;;;;;;8.00;5.85;;;1.70;85.40;;;;;;5076467;28;20199;-27
2024/01/09 09:01:40;;;;;;;7.17;5.53;;;1.70;85.70;;;;;;5077144;28;20526;-27
2024/01/09 09:04:06;;;;;;;7.30;5.80;;;1.70;85.80;;;;;;5079881;28;20445;-27
2024/01/09 09:06:31;;;;;;;8.32;5.75;;;1.80;86.60;;;;;;5081224;28;20194;-27
2024/01/09 09:08:58;;;;;;;8.57;5.63;;;1.80;85.80;;;;;;5079186;28;20890;-37
2024/01/09 09:11:24;;;;;;;10.40;5.80;;;1.70;85.70;;;;;;5071996;28;20451;-27
2024/01/09 09:13:50;;;;;;;8.80;6.60;;;1.80;85.80;;;;;;5080747;28;20579;-27
2024/01/09 09:16:16;;;;;;;8.90;5.72;;;1.70;85.70;;;;;;5081456;28;20473;-27
2024/01/09 09:18:44;;;;;;;8.27;5.88;;;1.70;85.60;;;;;;5081220;28;20206;-27
2024/01/09 09:21:11;;;;;;;8.18;6.63;;;1.70;85.60;;;;;;5044754;28;20201;-28
2024/01/09 09:23:38;;;;;;;6.45;5.25;;;1.70;85.50;;;;;;5080259;28;20264;-26
2024/01/09 09:26:06;;;;;;;7.03;5.38;;;1.80;85.50;;;;;;5080530;28;20195;-27
2024/01/09 09:28:32;;;;;;;7.88;5.45;;;1.80;85.50;;;;;;5076946;28;20213;-27
2024/01/09 09:31:02;;;;;;;8.70;6.10;;;1.80;85.60;;;;;;5074323;28;20187;-27
2024/01/09 09:33:33;;;;;;;10.00;5.88;;;1.80;85.60;;;;;;5063279;22;20497;-85
2024/01/09 09:36:07;;;;;;;7.80;6.80;;;1.80;85.70;;;;;;5040730;23;20236;-30
2024/01/09 09:38:35;;;;;;;7.05;6.05;;;1.80;85.70;;;;;;5019503;28;20217;-30
2024/01/09 09:41:08;;;;;;;8.40;6.15;;;1.80;85.70;;;;;;5033356;28;20304;-35
2024/01/09 09:43:35;;;;;;;6.82;6.13;;;1.80;85.70;;;;;;5020651;28;20236;-31
2024/01/09 09:46:03;;;;;;;8.00;6.10;;;1.80;85.70;;;;;;5018503;28;20746;-30
2024/01/09 09:48:32;;;;;;;8.75;6.05;;;1.70;85.70;;;;;;5020321;28;20583;-30
2024/01/09 09:51:01;;;;;;;7.60;6.10;;;1.70;85.80;;;;;;5018903;28;20735;-31
2024/01/09 09:53:28;;;;;;;7.38;6.32;;;1.70;86.00;;;;;;5018637;28;20608;-34
2024/01/09 09:55:55;;;;;;;10.70;5.32;;;1.70;85.70;;;;;;5019497;28;20290;-33
2024/01/09 09:58:24;;;;;;;6.97;5.60;;;1.70;85.70;;;;;;5018390;28;20213;-31
2024/01/09 10:00:54;;;;;;;6.63;5.60;;;1.70;85.70;;;;;;5000753;28;20318;-32
2024/01/09 10:03:22;;;;;;;7.47;5.50;;;1.70;85.70;;;;;;5018591;28;20928;-32
2024/01/09 10:05:50;;;;;;;9.90;5.78;;;1.80;85.70;;;;;;5019067;28;20232;-33
2024/01/09 10:08:20;;;;;;;8.30;6.78;;;1.70;85.70;;;;;;5016043;28;20710;-35
2024/01/09 10:10:46;;;;;;;8.35;6.63;;;1.70;85.50;;;;;;5018197;28;20583;-29
2024/01/09 10:13:12;;;;;;;8.47;6.53;;;1.70;85.50;;;;;;5017059;28;20208;-34
2024/01/09 10:15:58;;;;;;;9.75;6.03;;;1.70;85.50;;;;;;5016597;28;20456;-30
2024/01/09 10:18:33;;;;;;;7.03;5.68;;;1.80;85.60;;;;;;5015968;28;20224;-34
2024/01/09 10:21:00;;;;;;;7.28;5.43;;;1.70;85.30;;;;;;5017819;28;20239;-33
2024/01/09 10:23:27;;;;;;;8.88;5.72;;;1.70;85.20;;;;;;5017204;28;20228;-32
2024/01/09 10:25:53;;;;;;;9.55;5.40;;;1.70;85.30;;;;;;5017606;28;20224;-31
2024/01/09 10:28:22;;;;;;;10.10;5.95;;;1.80;85.30;;;;;;5017497;28;20212;-32
2024/01/09 10:30:52;;;;;;;7.22;5.60;;;1.80;85.00;;;;;;5017499;28;20197;-30
2024/01/09 10:33:19;;;;;;;9.77;6.30;;;1.70;85.00;;;;;;5016361;28;20223;-32
2024/01/09 10:35:45;;;;;;;8.07;6.05;;;1.80;84.90;;;;;;5017771;28;20327;-33
2024/01/09 10:38:11;;;;;;;9.80;6.25;;;1.80;84.70;;;;;;4999960;28;20209;-30
2024/01/09 10:40:41;;;;;;;6.55;5.18;;;1.80;84.60;;;;;;5016398;28;20225;-33
2024/01/09 10:43:08;;;;;;;8.73;5.70;;;1.80;84.80;;;;;;4991749;28;20833;-33
2024/01/09 10:45:33;;;;;;;9.35;6.35;;;1.80;84.90;;;;;;5031612;28;20182;-36
2024/01/09 10:48:00;;;;;;;8.37;6.90;;;1.80;85.60;;;;;;5015140;28;20734;-32
2024/01/09 10:50:29;;;;;;;8.45;6.47;;;1.80;84.80;;;;;;5015575;28;20444;-30
2024/01/09 10:52:56;;;;;;;7.15;5.40;;;1.80;84.60;;;;;;5016736;28;20205;-32
2024/01/09 10:55:23;;;;;;;8.27;6.00;;;1.80;84.60;;;;;;5015605;28;20200;-32
2024/01/09 10:57:49;;;;;;;7.07;5.50;;;1.80;85.00;;;;;;5015292;28;20224;-33
2024/01/09 11:00:19;;;;;;;8.13;5.75;;;1.80;85.00;;;;;;5017381;28;20220;-34
2024/01/09 11:02:45;;;;;;;8.07;6.45;;;1.80;84.60;;;;;;5014973;28;20205;-34
2024/01/09 11:05:13;;;;;;;6.05;5.47;;;1.80;84.50;;;;;;5017040;28;20265;-35
2024/01/09 11:07:43;;;;;;;7.45;5.70;;;1.80;84.40;;;;;;5015095;28;20277;-31
2024/01/09 11:10:16;;;;;;;8.35;6.45;;;1.80;84.20;;;;;;5022302;28;20240;-30
2024/01/09 11:12:46;;;;;;;6.40;5.60;;;1.80;84.30;;;;;;5011888;28;20274;-34
2024/01/09 11:15:19;;;;;;;7.80;5.80;;;1.80;84.20;;;;;;5014950;28;20212;-32
2024/01/09 11:17:48;;;;;;;9.95;6.38;;;1.80;84.30;;;;;;5014259;28;20196;-31
2024/01/09 11:20:16;;;;;;;6.40;5.40;;;1.90;84.50;;;;;;5017218;28;20185;-32
2024/01/09 11:22:44;;;;;;;6.68;5.03;;;1.80;84.20;;;;;;5017148;28;20255;-31
2024/01/09 11:25:17;;;;;;;6.47;5.63;;;1.80;84.30;;;;;;5016201;28;20185;-30
2024/01/09 11:27:46;;;;;;;6.32;5.10;;;1.80;84.30;;;;;;5016401;28;20189;-29
2024/01/09 11:30:21;;;;;;;7.47;5.65;;;1.80;84.20;;;;;;5017148;28;20237;-33
2024/01/09 11:32:50;;;;;;;8.85;5.93;;;1.80;84.20;;;;;;5016782;28;20658;-32
2024/01/09 11:35:18;;;;;;;7.25;5.28;;;1.80;84.10;;;;;;5015265;28;20291;-32
2024/01/09 11:37:49;;;;;;;7.32;5.55;;;1.80;84.30;;;;;;5016381;28;20327;-30
2024/01/09 11:40:17;;;;;;;6.97;6.20;;;1.80;84.10;;;;;;4997829;28;20962;-32
2024/01/09 11:42:45;;;;;;;7.85;5.10;;;1.80;84.00;;;;;;5013922;28;20189;-31
2024/01/09 11:45:12;;;;;;;6.75;5.57;;;1.90;84.00;;;;;;5015065;28;20266;-34
2024/01/09 11:47:43;;;;;;;7.95;5.50;;;1.90;83.90;;;;;;5014806;28;20922;-32
2024/01/09 11:50:10;;;;;;;8.35;5.65;;;1.90;83.80;;;;;;5015464;28;20217;-35
2024/01/09 11:52:41;;;;;;;7.55;6.10;;;1.90;83.80;;;;;;5015745;28;20181;-33
2024/01/09 11:55:09;;;;;;;11.27;6.18;;;1.90;83.90;;;;;;5012777;28;20565;-33
2024/01/09 11:57:36;;;;;;;9.88;5.80;;;1.90;83.80;;;;;;5015627;28;20298;-34
2024/01/09 12:00:08;;;;;;;7.60;6.20;;;1.90;83.80;;;;;;5014056;28;20189;-33
2024/01/09 12:02:37;;;;;;;14.00;6.13;;;1.90;83.80;;;;;;5012980;28;21076;-34
2024/01/09 12:05:08;;;;;;;8.15;6.22;;;1.90;83.80;;;;;;5014109;28;20288;-34
2024/01/09 12:07:39;;;;;;;10.57;7.13;;;1.90;84.40;;;;;;5014408;28;20296;-33
2024/01/09 12:10:10;;;;;;;10.00;7.25;;;1.90;83.40;;;;;;5016090;28;20258;-33
2024/01/09 12:12:36;;;;;;;8.93;6.90;;;1.90;83.00;;;;;;5014734;28;20193;-31
2024/01/09 12:15:05;;;;;;;8.40;6.95;;;1.90;83.00;;;;;;5017392;28;20719;-32
2024/01/09 12:17:44;;;;;;;10.85;7.57;;;1.90;83.40;;;;;;5016631;28;20216;-31
2024/01/09 12:20:10;;;;;;;9.63;6.47;;;1.90;83.60;;;;;;4997724;28;20231;-32
2024/01/09 12:22:39;;;;;;;13.57;8.05;;;1.90;83.90;;;;;;5013508;28;20239;-32
2024/01/09 12:25:06;;;;;;;11.48;7.78;;;1.90;84.00;;;;;;5015198;28;20277;-29
2024/01/09 12:27:34;;;;;;;9.95;7.07;;;2.00;84.00;;;;;;5013669;28;20715;-35
2024/01/09 12:30:00;;;;;;;14.18;9.10;;;2.00;83.40;;;;;;5014850;28;20703;-33
2024/01/09 12:32:29;;;;;;;10.35;7.57;;;2.00;83.30;;;;;;5014931;28;20835;-32
2024/01/09 12:34:56;;;;;;;12.75;7.35;;;2.00;83.40;;;;;;5014333;28;20181;-33
2024/01/09 12:37:22;;;;;;;10.93;7.27;;;2.00;83.10;;;;;;4978600;28;1133861;-34
2024/01/09 12:40:01;;;;;;;12.00;8.18;;;2.00;83.10;;;;;;5019626;28;20323;-33
2024/01/09 12:42:27;;;;;;;10.25;7.22;;;2.00;82.90;;;;;;5016587;28;20635;-32
2024/01/09 12:44:55;;;;;;;11.07;7.15;;;2.00;82.70;;;;;;5018125;28;20185;-31
2024/01/09 12:47:25;;;;;;;10.50;7.72;;;2.00;82.80;;;;;;5019313;28;20852;-32
2024/01/09 12:49:53;;;;;;;9.95;7.13;;;2.00;83.10;;;;;;5019641;28;20213;-31
2024/01/09 12:52:20;;;;;;;8.60;6.82;;;2.00;83.00;;;;;;5023720;28;20189;-34
2024/01/09 12:54:49;;;;;;;11.48;7.28;;;2.00;83.20;;;;;;5020423;28;20751;-31
2024/01/09 12:57:16;;;;;;;9.77;7.28;;;2.00;83.10;;;;;;4999043;28;20236;-31